首页
METAR-TAF:

METAR-TAF

机场 :

Campbeltown, 苏格兰

纬度: 55-26-14N, 经度: 005-41-11W, 海拔: 13米

当前天气观测

该预报发布于10小时和58分钟前的16:20 UTC
风速21节,风向
温度 15°C
湿度 94%
气压 1013 hPa
能见度10公里或以上
多云层高于900英尺
散云层高于1600英尺

METAR: EGEC 211620Z 17021KT 9999 RA BKN009 SCT016 15/14 Q1013

时间: 04:18 (03:18 UTC)

预报

该预报发布于11小时和17分钟前的16:01 UTC
预报有效从21日的 16点(UTC)到 21日的 17点(UTC)
风速10节,风向
能见度10公里或以上
散云层高于2000英尺
短暂存在
从 21日的 16点(UTC)到 21日的 17点(UTC)
风速20节,风向,有时为30节阵风
能見度: 5000
多云层高于900英尺
几率 30% :
短暂存在
从 21日的 16点(UTC)到 21日的 17点(UTC)
能見度: 3500
大雨

TAF: EGEC 211601Z 2116/2117 18010KT 9999 SCT020 TEMPO 2116/2117 17020G30KT 5000 RA BKN009 PROB30 TEMPO 2116/2117 3500 +RA

超过4000个机场的气象观测和天气预报(METAR&TAF报告)。

可查询的气象台以黄色和红色小点在地图上表示。

将鼠标移到小点上方,可查看气象台名称。

然后点击查看天气观测和预报。

如需切换地图:点击带黑十字的绿色按钮放大地图;点击带横线的绿色按钮缩小地图;或者点击绿色箭头查看邻近地区的地图。


METAR-TAF: